createdAt,value
2022-08-16T00:00:40.134Z,25.57
2022-08-16T00:05:34.936Z,25.97
2022-08-16T00:10:33.215Z,26.27
2022-08-16T00:15:52.072Z,26.90
2022-08-16T00:20:48.188Z,29.80
2022-08-16T00:26:13.608Z,29.27
2022-08-16T00:30:56.248Z,26.50
2022-08-16T00:35:51.520Z,29.60
2022-08-16T00:40:50.784Z,29.13
2022-08-16T00:46:33.239Z,27.30
2022-08-16T00:51:29.625Z,31.13
2022-08-16T00:56:56.699Z,32.43
2022-08-16T01:01:40.523Z,29.50
2022-08-16T01:06:48.687Z,28.53
2022-08-16T01:11:53.836Z,26.57
2022-08-16T01:16:49.122Z,26.27
2022-08-16T01:22:49.607Z,27.03
2022-08-16T01:27:35.438Z,25.87
2022-08-16T01:32:41.179Z,29.00
2022-08-16T01:37:54.324Z,27.77
2022-08-16T01:42:54.029Z,25.73
2022-08-16T01:47:51.889Z,25.00
2022-08-16T01:52:47.099Z,25.80
2022-08-16T01:57:53.746Z,28.23
2022-08-16T02:02:52.488Z,27.87
2022-08-16T02:07:46.442Z,25.67
2022-08-16T02:12:51.122Z,28.37
2022-08-16T02:17:45.582Z,27.40
2022-08-16T02:22:40.420Z,23.27
2022-08-16T02:27:32.800Z,23.37
2022-08-16T02:32:50.169Z,23.27
2022-08-16T02:37:39.700Z,22.77
2022-08-16T02:42:49.707Z,23.10
2022-08-16T02:48:00.644Z,23.90
2022-08-16T02:52:55.806Z,21.77
2022-08-16T02:57:54.408Z,25.47
2022-08-16T03:02:47.477Z,26.70
2022-08-16T03:07:50.992Z,22.13
2022-08-16T03:12:56.047Z,25.47
2022-08-16T03:17:54.345Z,20.43
2022-08-16T03:22:49.769Z,20.40
2022-08-16T03:27:43.179Z,23.13
2022-08-16T03:32:41.214Z,21.17
2022-08-16T03:38:01.977Z,22.43
2022-08-16T03:43:18.917Z,21.87
2022-08-16T03:48:10.076Z,23.13
2022-08-16T03:53:09.541Z,24.37
2022-08-16T03:58:02.004Z,22.07
2022-08-16T04:02:57.935Z,22.80
2022-08-16T04:07:50.953Z,24.70
2022-08-16T04:12:53.877Z,23.00
2022-08-16T04:17:48.836Z,24.27
2022-08-16T04:22:43.820Z,24.03
2022-08-16T04:27:54.309Z,22.77
2022-08-16T04:32:49.961Z,22.93
2022-08-16T04:37:46.377Z,23.70
2022-08-16T04:42:46.047Z,23.67
2022-08-16T04:47:41.227Z,22.97
2022-08-16T04:52:45.226Z,29.07
2022-08-16T04:57:38.493Z,29.30
2022-08-16T05:02:41.953Z,20.40
2022-08-16T05:07:37.635Z,20.40
2022-08-16T05:12:50.349Z,18.90
2022-08-16T05:17:44.568Z,17.60
2022-08-16T05:22:40.152Z,19.83
2022-08-16T05:27:42.645Z,21.77
2022-08-16T05:32:45.614Z,24.13
2022-08-16T05:37:42.150Z,17.37
2022-08-16T05:42:38.029Z,13.80
2022-08-16T05:47:31.089Z,10.20
2022-08-16T05:52:24.316Z,8.87
2022-08-16T05:57:21.954Z,8.30
2022-08-16T06:02:17.250Z,8.50
2022-08-16T06:07:25.116Z,6.97
2022-08-16T06:12:29.760Z,6.70
2022-08-16T06:17:41.587Z,6.97
2022-08-16T06:22:40.725Z,6.37
2022-08-16T06:27:40.897Z,6.33
2022-08-16T06:32:38.300Z,5.37
2022-08-16T06:37:37.486Z,4.90
2022-08-16T06:42:39.470Z,4.32
2022-08-16T06:47:56.414Z,4.03
2022-08-16T06:52:57.614Z,3.80
2022-08-16T06:57:53.324Z,3.85
2022-08-16T07:02:51.781Z,4.25
2022-08-16T07:07:48.236Z,4.50
2022-08-16T07:13:03.237Z,4.32
2022-08-16T07:18:00.948Z,4.72
2022-08-16T07:22:58.733Z,4.22
2022-08-16T07:28:06.363Z,4.30
2022-08-16T07:33:07.135Z,4.50
2022-08-16T07:38:01.404Z,4.60
2022-08-16T07:43:07.426Z,3.83
2022-08-16T07:48:00.661Z,3.63
2022-08-16T07:53:07.135Z,3.05
2022-08-16T07:58:03.381Z,2.70
2022-08-16T08:03:00.776Z,3.17
2022-08-16T08:07:57.661Z,2.63
2022-08-16T08:12:53.131Z,2.92
2022-08-16T08:17:50.488Z,5.47
2022-08-16T08:22:49.861Z,3.00
2022-08-16T08:27:44.205Z,3.03
2022-08-16T08:32:58.775Z,2.97
2022-08-16T08:37:54.182Z,2.70
2022-08-16T08:42:51.444Z,2.60
2022-08-16T08:47:58.507Z,3.03
2022-08-16T08:52:55.202Z,2.83
2022-08-16T08:57:50.426Z,3.10
2022-08-16T09:03:04.460Z,2.60
2022-08-16T09:08:05.888Z,3.13
2022-08-16T09:13:10.782Z,2.80
2022-08-16T09:18:26.372Z,2.75
2022-08-16T09:23:21.136Z,2.42
2022-08-16T09:29:14.670Z,2.75
2022-08-16T09:33:40.621Z,5.90
2022-08-16T09:38:32.985Z,2.88
2022-08-16T09:43:58.301Z,3.00
2022-08-16T09:48:44.628Z,3.10
2022-08-16T09:53:43.775Z,2.80
2022-08-16T09:59:05.797Z,3.20
2022-08-16T10:04:01.548Z,3.33
2022-08-16T10:09:05.022Z,3.55
2022-08-16T10:13:59.282Z,3.45
2022-08-16T10:19:01.667Z,3.22
2022-08-16T10:24:02.351Z,2.95
2022-08-16T10:28:54.990Z,2.90
2022-08-16T10:33:47.500Z,2.80
2022-08-16T10:38:42.326Z,2.60
2022-08-16T10:44:30.537Z,2.60
2022-08-16T10:50:39.314Z,2.53
2022-08-16T10:56:52.071Z,2.50
2022-08-16T11:03:01.442Z,2.60
2022-08-16T11:09:28.862Z,2.33
2022-08-16T11:15:36.603Z,2.33
2022-08-16T11:28:36.156Z,2.10
2022-08-16T11:35:05.836Z,2.50
2022-08-16T11:41:05.507Z,2.50
2022-08-16T11:47:13.537Z,2.85
2022-08-16T11:53:20.975Z,2.60
2022-08-16T11:59:29.345Z,2.50
2022-08-16T12:05:36.463Z,2.45
2022-08-16T12:11:47.083Z,2.15
2022-08-16T12:17:59.309Z,2.90
2022-08-16T12:24:07.421Z,2.42
2022-08-16T12:30:26.307Z,2.67
2022-08-16T12:36:41.557Z,2.78
2022-08-16T12:42:34.477Z,2.33
2022-08-16T12:48:31.417Z,3.03
2022-08-16T12:53:16.464Z,8.13
2022-08-16T12:58:14.254Z,2.95
2022-08-16T13:03:24.803Z,3.17
2022-08-16T13:08:23.168Z,2.88
2022-08-16T13:13:25.998Z,2.53
2022-08-16T13:18:27.113Z,2.45
2022-08-16T13:23:20.505Z,2.85
2022-08-16T13:28:16.901Z,2.78
2022-08-16T13:33:24.845Z,2.60
2022-08-16T13:38:25.008Z,3.13
2022-08-16T13:43:19.797Z,2.33
2022-08-16T13:48:21.853Z,2.67
2022-08-16T13:53:17.816Z,2.55
2022-08-16T13:58:36.552Z,3.30
2022-08-16T14:03:23.962Z,3.67
2022-08-16T14:08:16.288Z,4.55
2022-08-16T14:13:17.556Z,3.47
2022-08-16T14:18:17.146Z,2.50
2022-08-16T14:23:12.644Z,2.45
2022-08-16T14:28:05.630Z,3.38
2022-08-16T14:33:04.420Z,3.00
2022-08-16T14:38:00.303Z,3.08
2022-08-16T14:42:54.463Z,3.15
2022-08-16T14:47:49.796Z,2.60
2022-08-16T14:52:56.319Z,5.10
2022-08-16T14:57:49.192Z,2.50
2022-08-16T15:02:54.230Z,3.05
2022-08-16T15:07:50.848Z,2.42
2022-08-16T15:12:47.701Z,3.00
2022-08-16T15:17:42.238Z,2.88
2022-08-16T15:22:50.412Z,3.10
2022-08-16T15:27:45.638Z,2.95
2022-08-16T15:32:47.781Z,3.13
2022-08-16T15:37:44.079Z,3.55
2022-08-16T15:42:36.925Z,2.35
2022-08-16T15:47:29.422Z,2.80
2022-08-16T15:52:29.773Z,2.90
2022-08-16T15:57:27.869Z,2.53
2022-08-16T16:02:29.291Z,3.10
2022-08-16T16:07:25.051Z,2.67
2022-08-16T16:12:50.260Z,2.73
2022-08-16T16:17:29.770Z,3.10
2022-08-16T16:22:22.513Z,2.30
2022-08-16T16:27:17.960Z,2.50
2022-08-16T16:32:11.975Z,2.70
2022-08-16T16:37:04.985Z,2.47
2022-08-16T16:42:04.332Z,2.23
2022-08-16T16:46:57.959Z,3.03
2022-08-16T16:51:51.579Z,3.03
2022-08-16T16:56:46.106Z,2.73
2022-08-16T17:02:00.015Z,3.00
2022-08-16T17:06:58.272Z,2.70
2022-08-16T17:11:55.465Z,2.63
2022-08-16T17:16:47.959Z,2.70
2022-08-16T17:21:42.010Z,3.20
2022-08-16T17:26:35.026Z,3.57
2022-08-16T17:31:38.136Z,3.20
2022-08-16T17:36:36.258Z,2.80
2022-08-16T17:41:29.518Z,3.40
2022-08-16T17:46:41.407Z,3.50
2022-08-16T17:51:34.547Z,3.40
2022-08-16T17:56:27.190Z,3.50
2022-08-16T18:01:25.575Z,4.20
2022-08-16T18:06:18.952Z,3.30
2022-08-16T18:11:13.492Z,3.23
2022-08-16T18:16:07.695Z,3.33
2022-08-16T18:21:18.808Z,4.13
2022-08-16T18:26:11.080Z,3.87
2022-08-16T18:31:05.702Z,3.23
2022-08-16T18:35:58.546Z,3.50
2022-08-16T18:40:51.213Z,3.17
2022-08-16T18:45:47.115Z,2.60
2022-08-16T18:50:59.650Z,2.00
2022-08-16T18:55:57.571Z,2.90
2022-08-16T19:00:56.495Z,2.73
2022-08-16T19:05:55.055Z,3.03
2022-08-16T19:10:49.135Z,2.30
2022-08-16T19:15:42.999Z,2.60
2022-08-16T19:20:35.999Z,3.17
2022-08-16T19:25:46.631Z,3.80
2022-08-16T19:30:41.634Z,8.37
2022-08-16T19:35:34.348Z,3.20
2022-08-16T19:40:37.832Z,3.40
2022-08-16T19:45:31.078Z,3.10
2022-08-16T19:50:34.397Z,3.37
2022-08-16T19:55:29.883Z,2.93
2022-08-16T20:00:22.845Z,2.80
2022-08-16T20:05:31.147Z,2.70
2022-08-16T20:10:24.848Z,2.30
2022-08-16T20:15:28.188Z,3.20
2022-08-16T20:20:23.395Z,2.57
2022-08-16T20:25:28.004Z,3.70
2022-08-16T20:30:21.185Z,3.37
2022-08-16T20:35:16.669Z,3.37
2022-08-16T20:40:28.511Z,3.03
2022-08-16T20:45:28.176Z,2.63
2022-08-16T20:50:21.144Z,3.10
2022-08-16T20:55:13.480Z,3.13
2022-08-16T21:00:08.307Z,3.00
2022-08-16T21:05:04.451Z,3.83
2022-08-16T21:09:57.068Z,3.53
2022-08-16T21:14:50.948Z,3.83
2022-08-16T21:19:45.093Z,3.93
2022-08-16T21:24:37.461Z,4.53
2022-08-16T21:29:37.794Z,3.50
2022-08-16T21:34:32.311Z,3.70
2022-08-16T21:39:24.885Z,4.90
2022-08-16T21:44:17.129Z,4.23
2022-08-16T21:49:09.529Z,4.70
2022-08-16T21:54:02.041Z,4.87
2022-08-16T21:58:54.510Z,4.60
2022-08-16T22:03:46.717Z,4.67
2022-08-16T22:08:48.076Z,4.57
2022-08-16T22:13:51.246Z,4.17
2022-08-16T22:18:52.222Z,3.93
2022-08-16T22:23:44.671Z,4.30
2022-08-16T22:28:37.046Z,5.37
2022-08-16T22:33:31.395Z,4.23
2022-08-16T22:38:53.352Z,3.50
2022-08-16T22:43:37.167Z,4.00
2022-08-16T22:48:29.494Z,4.47
2022-08-16T22:53:21.883Z,4.20
2022-08-16T22:58:15.375Z,4.63
2022-08-16T23:03:17.509Z,3.70
2022-08-16T23:08:14.289Z,3.90
2022-08-16T23:13:26.481Z,3.50
2022-08-16T23:18:22.557Z,4.30
2022-08-16T23:23:21.860Z,3.57
2022-08-16T23:28:16.180Z,4.00
2022-08-16T23:33:11.803Z,4.50
2022-08-16T23:38:04.530Z,4.07
2022-08-16T23:43:06.587Z,4.10
2022-08-16T23:47:59.575Z,4.17
2022-08-16T23:53:23.012Z,3.77
2022-08-16T23:58:18.322Z,4.20
